Flight Track Log - Related Links

Times and Time Zones

All times are in EDT time to prevent confusion due to time zone crossing. See the AAL832 flight status page for this flight to view local times or setup timezone preferences in your user account.

Time Position Orientation Groundspeed Altitude Reporting Facility
EDT Latitude Longitude Course Direction KTS MPH feet Rate Location/Type
Mon 06:56:16 PM 41.9840 -87.9020 90° East 140 161  Level FlightAware ADS-B
Mon 06:56:37 PM 41.9840 -87.8790 90° East 170 196 1,300 3,000 Climbing FlightAware ADS-B
Mon 06:56:46 PM 41.9820 -87.8710 109° East 178 205 1,500 1,846 Climbing FlightAware ADS-B
Mon 06:56:50 PM 41.9810 -87.8670 109° East 181 208 1,700 2,400 Climbing FlightAware ADS-B
Mon 06:56:56 PM 41.9780 -87.8610 124° Southeast 187 215 1,900 1,500 Climbing FlightAware ADS-B
Mon 06:57:06 PM 41.9720 -87.8530 135° Southeast 190 219 2,100 1,600 Climbing FlightAware ADS-B
Mon 06:57:26 PM 41.9590 -87.8350 134° Southeast 203 234 2,700 1,800 Climbing FlightAware ADS-B
Mon 06:57:46 PM 41.9450 -87.8170 136° Southeast 215 247 3,300 1,600 Climbing FlightAware ADS-B
Mon 06:57:56 PM 41.9370 -87.8070 137° Southeast 226 260 3,500 1,565 Climbing FlightAware ADS-B
Mon 06:58:09 PM 41.9250 -87.7980 151° Southeast 234 269 3,900 1,615 Climbing FlightAware ADS-B
Mon 06:58:22 PM 41.9120 -87.7940 167° South 246 283 4,200 1,636 Climbing FlightAware ADS-B
Mon 06:58:42 PM 41.8880 -87.7910 175° South 268 308 4,800 2,400 Climbing FlightAware ADS-B
Mon 06:59:02 PM 41.8610 -87.7870 174° South 280 322 5,800 3,136 Climbing FlightAware ADS-B
Mon 06:59:26 PM 41.8310 -87.7820 173° South 282 325 7,100 3,200 Climbing FlightAware ADS-B
Mon 06:59:47 PM 41.8030 -87.7760 171° South 287 330 8,200 3,366 Climbing FlightAware ADS-B
Mon 07:00:07 PM 41.7750 -87.7710 172° South 290 334 9,400 3,107 Climbing FlightAware ADS-B
Mon 07:00:43 PM 41.7270 -87.7570 168° South 299 344 11,100 2,776 Climbing FlightAware ADS-B
Mon 07:01:14 PM 41.6860 -87.7490 172° South 309 356 12,500 2,149 Climbing FlightAware ADS-B
Mon 07:01:50 PM 41.6310 -87.7390 172° South 345 397 13,500 1,750 Climbing FlightAware ADS-B
Mon 07:02:26 PM 41.5720 -87.7220 168° South 374 430 14,600 2,486 Climbing FlightAware ADS-B
Mon 07:03:00 PM 41.5150 -87.7040 167° South 369 425 16,400 3,000 Climbing FlightAware ADS-B
Mon 07:03:36 PM 41.4550 -87.6870 168° South 366 421 18,100 2,548 Climbing FlightAware ADS-B
Mon 07:04:13 PM 41.3940 -87.6630 164° South 377 434 19,500 2,219 Climbing FlightAware ADS-B
Mon 07:04:49 PM 41.3350 -87.6350 160° South 385 443 20,800 1,970 Climbing FlightAware ADS-B
Mon 07:05:20 PM 41.2850 -87.6110 160° South 395 455 21,700 1,881 Climbing FlightAware ADS-B
Mon 07:05:56 PM 41.2270 -87.5710 153° Southeast 406 467 22,900 1,944 Climbing FlightAware ADS-B
Mon 07:06:31 PM 41.1690 -87.5240 149° Southeast 411 473 24,000 1,959 Climbing FlightAware ADS-B
Mon 07:06:45 PM 41.1440 -87.5100 157° South 405 466 24,500 1,915 Climbing FlightAware ADS-B
Mon 07:07:18 PM 41.0830 -87.4930 168° South 402 463 25,500 1,714 Climbing FlightAware ADS-B
Mon 07:07:55 PM 41.0140 -87.4750 169° South 407 468 26,500 1,391 Climbing FlightAware ADS-B
Mon 07:08:27 PM 40.9510 -87.4590 169° South 422 486 27,100 930 Climbing FlightAware ADS-B
Mon 07:09:06 PM 40.8840 -87.4430 170° South 436 502 27,600 1,014 Climbing FlightAware ADS-B
Mon 07:09:38 PM 40.8190 -87.4260 169° South 442 509 28,300 1,543 Climbing FlightAware ADS-B
Mon 07:10:16 PM 40.7360 -87.4050 169° South 443 510 29,400 1,622 Climbing FlightAware ADS-B
Mon 07:10:52 PM 40.6640 -87.3880 170° South 444 511 30,300 1,286 Climbing FlightAware ADS-B
Mon 07:11:26 PM 40.6020 -87.3720 169° South 447 514 30,900 1,184 Climbing FlightAware ADS-B
Mon 07:12:08 PM 40.5120 -87.3490 169° South 449 517 31,800 1,231 Climbing FlightAware ADS-B
Mon 07:12:44 PM 40.4350 -87.3260 167° South 462 532 32,500 1,147 Climbing FlightAware ADS-B
Mon 07:13:16 PM 40.3730 -87.2970 160° South 465 535 33,100 1,235 Climbing FlightAware ADS-B
Mon 07:13:52 PM 40.2980 -87.2620 160° South 464 534 33,900 1,167 Climbing FlightAware ADS-B
Mon 07:14:28 PM 40.2300 -87.2300 160° South 464 534 34,500 904 Climbing FlightAware ADS-B
Mon 07:15:05 PM 40.1500 -87.1930 161° South 461 531 35,000 435 Climbing FlightAware ADS-B
Mon 07:15:37 PM 40.0840 -87.1620 160° South 460 529 35,000  Level FlightAware ADS-B
Mon 07:16:14 PM 40.0140 -87.1290 160° South 462 532 35,000  Level FlightAware ADS-B
Mon 07:16:50 PM 39.9420 -87.0800 152° Southeast 477 549 35,000  Level FlightAware ADS-B
Mon 07:17:22 PM 39.8820 -87.0290 147° Southeast 477 549 35,000  Level FlightAware ADS-B
Mon 07:17:58 PM 39.8160 -86.9730 147° Southeast 476 548 35,000  Level FlightAware ADS-B
Mon 07:18:33 PM 39.7510 -86.9190 147° Southeast 475 547 35,000 88 Level FlightAware ADS-B
Mon 07:19:06 PM 39.6910 -86.8690 147° Southeast 479 551 35,100 706 Climbing FlightAware ADS-B
Mon 07:19:41 PM 39.6260 -86.8140 147° Southeast 475 547 35,800 1,151 Climbing FlightAware ADS-B
Mon 07:20:19 PM 39.5570 -86.7570 148° Southeast 471 542 36,500 1,014 Climbing FlightAware ADS-B
Mon 07:20:52 PM 39.4950 -86.7050 147° Southeast 469 540 37,000 435 Climbing FlightAware ADS-B
Mon 07:21:28 PM 39.4290 -86.6510 148° Southeast 468 539 37,000  Level FlightAware ADS-B
Mon 07:22:02 PM 39.3680 -86.6010 148° Southeast 465 535 37,000  Level FlightAware ADS-B
Mon 07:22:38 PM 39.3030 -86.5470 147° Southeast 466 536 37,000  Level FlightAware ADS-B
Mon 07:23:13 PM 39.2390 -86.4950 148° Southeast 464 534 37,000  Level FlightAware ADS-B
Mon 07:23:49 PM 39.1740 -86.4400 147° Southeast 463 533 37,000  Level FlightAware ADS-B
Mon 07:24:22 PM 39.1150 -86.3920 148° Southeast 464 534 37,000  Level FlightAware ADS-B
Mon 07:24:56 PM 39.0530 -86.3410 147° Southeast 462 532 37,000  Level FlightAware ADS-B
Mon 07:25:34 PM 38.9850 -86.2860 148° Southeast 461 531 37,000  Level FlightAware ADS-B
Mon 07:26:06 PM 38.9260 -86.2380 148° Southeast 460 529 37,000  Level FlightAware ADS-B
Mon 07:26:41 PM 38.8660 -86.1890 148° Southeast 461 531 37,000  Level FlightAware ADS-B
Mon 07:27:18 PM 38.7960 -86.1320 148° Southeast 463 533 37,000  Level FlightAware ADS-B
Mon 07:27:54 PM 38.7320 -86.0810 148° Southeast 465 535 37,000  Level FlightAware ADS-B
Mon 07:28:30 PM 38.6690 -86.0210 143° Southeast 479 551 37,000  Level FlightAware ADS-B
Mon 07:29:04 PM 38.6150 -85.9490 134° Southeast 486 559 37,000  Level FlightAware ADS-B
Mon 07:29:40 PM 38.5620 -85.8750 132° Southeast 487 560 37,000  Level FlightAware ADS-B
Mon 07:30:16 PM 38.5060 -85.7970 133° Southeast 488 562 37,000  Level FlightAware ADS-B
Mon 07:30:47 PM 38.4580 -85.7330 134° Southeast 490 564 37,000  Level FlightAware ADS-B
Mon 07:31:23 PM 38.4020 -85.6570 133° Southeast 491 565 37,000  Level FlightAware ADS-B
Mon 07:31:59 PM 38.3620 -85.5700 120° Southeast 514 592 37,000  Level FlightAware ADS-B
Mon 07:32:47 PM 38.3580 -85.4210 92° East 526 605 37,000  Level FlightAware ADS-B
Mon 07:33:19 PM 38.3640 -85.3220 86° East 527 606 37,000  Level FlightAware ADS-B
Mon 07:33:57 PM 38.3700 -85.2040 86° East 525 604 37,000  Level FlightAware ADS-B
Mon 07:34:33 PM 38.3760 -85.0930 86° East 523 602 37,000  Level FlightAware ADS-B
Mon 07:35:10 PM 38.3830 -84.9780 86° East 524 603 37,000  Level FlightAware ADS-B
Mon 07:35:37 PM 38.3880 -84.8970 85° East 524 603 37,000  Level FlightAware ADS-B
Mon 07:36:15 PM 38.3940 -84.7800 86° East 523 602 37,000  Level FlightAware ADS-B
Mon 07:36:52 PM 38.4010 -84.6650 86° East 522 601 37,000  Level FlightAware ADS-B
Mon 07:37:28 PM 38.4080 -84.5550 85° East 523 602 37,000  Level FlightAware ADS-B
Mon 07:38:04 PM 38.4140 -84.4440 86° East 524 603 37,000  Level FlightAware ADS-B
Mon 07:38:35 PM 38.4190 -84.3500 86° East 526 605 37,000  Level FlightAware ADS-B
Mon 07:39:11 PM 38.4260 -84.2390 85° East 527 606 37,000  Level FlightAware ADS-B
Mon 07:39:48 PM 38.4320 -84.1210 86° East 528 608 37,000  Level FlightAware ADS-B
Mon 07:40:22 PM 38.4380 -84.0180 86° East 530 610 37,000  Level FlightAware ADS-B
Mon 07:40:52 PM 38.4430 -83.9230 86° East 528 608 37,000  Level FlightAware ADS-B
Mon 07:41:32 PM 38.4510 -83.7980 85° East 532 612 37,000  Level FlightAware ADS-B
Mon 07:42:09 PM 38.4580 -83.6860 85° East 530 610 37,000  Level FlightAware ADS-B
Mon 07:42:42 PM 38.4650 -83.5800 85° East 529 609 37,000  Level FlightAware ADS-B
Mon 07:43:16 PM 38.4730 -83.4760 84° East 528 608 37,000  Level FlightAware ADS-B
Mon 07:43:58 PM 38.4700 -83.3530 92° East 518 596 37,000  Level FlightAware ADS-B
Mon 07:44:14 PM 38.4550 -83.3080 113° Southeast 509 586 37,000  Level FlightAware ADS-B
Mon 07:44:48 PM 38.4050 -83.2260 128° Southeast 496 571 37,000  Level FlightAware ADS-B
Mon 07:45:04 PM 38.3780 -83.1950 138° Southeast 489 563 37,000  Level FlightAware ADS-B
Mon 07:45:35 PM 38.3146 -83.1601 157° South 469 540 37,000  Level FlightAware ADS-B
Mon 07:46:11 PM 38.2401 -83.1419 169° South 453 521 37,000  Level FlightAware ADS-B
Mon 07:46:46 PM 38.1720 -83.1270 170° South 452 520 37,000  Level FlightAware ADS-B
Mon 07:47:22 PM 38.0970 -83.1100 170° South 451 519 37,000  Level FlightAware ADS-B
Mon 07:47:38 PM 38.0617 -83.1017 170° South 452 520 37,000  Level FlightAware ADS-B
Mon 07:48:24 PM 37.9659 -83.0798 170° South 452 520 37,000  Level FlightAware ADS-B
Mon 07:49:00 PM 37.8927 -83.0630 170° South 454 522 37,000  Level FlightAware ADS-B
Mon 07:49:34 PM 37.8217 -83.0469 170° South 455 524 37,000  Level FlightAware ADS-B
Mon 07:50:06 PM 37.7556 -83.0318 170° South 455 524 37,000  Level FlightAware ADS-B
Mon 07:50:57 PM 37.6498 -83.0078 170° South 453 521 37,000  Level FlightAware ADS-B
Mon 07:51:27 PM 37.5872 -82.9935 170° South 452 520 37,000  Level FlightAware ADS-B
Mon 07:52:00 PM 37.5211 -82.9787 170° South 450 518 37,000  Level FlightAware ADS-B
Mon 07:52:30 PM 37.4582 -82.9646 170° South 449 517 37,000  Level FlightAware ADS-B
Mon 07:53:00 PM 37.3965 -82.9508 170° South 448 516 37,000  Level FlightAware ADS-B
Mon 07:53:31 PM 37.3347 -82.9369 170° South 447 514 37,000  Level FlightAware ADS-B
Mon 07:54:01 PM 37.2727 -82.9230 170° South 446 513 37,000  Level FlightAware ADS-B
Mon 07:54:32 PM 37.2111 -82.9094 170° South 445 512 37,000  Level FlightAware ADS-B
Mon 07:55:04 PM 37.1457 -82.8949 170° South 444 511 37,000  Level FlightAware ADS-B
Mon 07:55:39 PM 37.0745 -82.8790 170° South 443 510 37,000  Level FlightAware ADS-B
Mon 07:56:15 PM 37.0021 -82.8629 170° South 446 513 37,000  Level FlightAware ADS-B
Mon 07:56:52 PM 36.9266 -82.8463 170° South 449 517 37,000  Level FlightAware ADS-B
Mon 07:57:22 PM 36.8643 -82.8325 170° South 450 518 37,000  Level FlightAware ADS-B
Mon 07:57:53 PM 36.8012 -82.8184 170° South 451 519 37,000  Level FlightAware ADS-B
Mon 07:58:24 PM 36.7375 -82.8042 170° South 451 519 37,000  Level FlightAware ADS-B
Mon 07:58:56 PM 36.6717 -82.7897 170° South 451 519 37,000  Level FlightAware ADS-B
Mon 07:59:27 PM 36.6095 -82.7760 170° South 450 518 37,000  Level FlightAware ADS-B
Mon 08:00:03 PM 36.5346 -82.7596 170° South 451 519 37,000  Level FlightAware ADS-B
Mon 08:00:36 PM 36.4664 -82.7448 170° South 452 520 37,000  Level FlightAware ADS-B
Mon 08:01:08 PM 36.4017 -82.7307 170° South 452 520 37,000  Level FlightAware ADS-B
Mon 08:01:40 PM 36.3356 -82.7163 170° South 452 520 37,000  Level FlightAware ADS-B
Mon 08:02:10 PM 36.2732 -82.7028 170° South 452 520 37,000  Level FlightAware ADS-B
Mon 08:02:41 PM 36.2092 -82.6888 170° South 453 521 37,000  Level FlightAware ADS-B
Mon 08:03:11 PM 36.1469 -82.6753 170° South 453 521 37,000  Level FlightAware ADS-B
Mon 08:03:50 PM 36.0676 -82.6583 170° South 455 524 37,000  Level FlightAware ADS-B
Mon 08:04:22 PM 36.0005 -82.6437 170° South 456 525 37,000  Level FlightAware ADS-B
Mon 08:04:52 PM 35.9377 -82.6302 170° South 456 525 37,000  Level FlightAware ADS-B
Mon 08:05:37 PM 35.8440 -82.6099 170° South 457 526 37,000  Level FlightAware ADS-B
Mon 08:06:08 PM 35.7802 -82.5962 170° South 458 527 37,000  Level FlightAware ADS-B
Mon 08:06:38 PM 35.7167 -82.5825 170° South 459 528 37,000  Level FlightAware ADS-B
Mon 08:07:09 PM 35.6526 -82.5688 170° South 459 528 37,000  Level FlightAware ADS-B
Mon 08:07:39 PM 35.5897 -82.5553 170° South 458 527 37,000  Level FlightAware ADS-B
Mon 08:08:09 PM 35.5266 -82.5420 170° South 458 527 37,000  Level FlightAware ADS-B
Mon 08:08:40 PM 35.4621 -82.5282 170° South 459 528 37,000  Level FlightAware ADS-B
Mon 08:09:11 PM 35.3969 -82.5143 170° South 457 526 37,000  Level FlightAware ADS-B
Mon 08:09:47 PM 35.3222 -82.4984 170° South 454 522 37,000  Level FlightAware ADS-B
Mon 08:10:23 PM 35.2478 -82.4824 170° South 453 521 37,000  Level FlightAware ADS-B
Mon 08:10:54 PM 35.1839 -82.4689 170° South 453 521 37,000  Level FlightAware ADS-B
Mon 08:11:38 PM 35.0935 -82.4499 170° South 451 519 37,000  Level FlightAware ADS-B
Mon 08:12:09 PM 35.0311 -82.4367 170° South 450 518 37,000  Level FlightAware ADS-B
Mon 08:12:39 PM 34.9678 -82.4234 170° South 449 517 37,000  Level FlightAware ADS-B
Mon 08:13:10 PM 34.9062 -82.4104 170° South 450 518 37,000  Level FlightAware ADS-B
Mon 08:13:40 PM 34.8441 -82.3973 170° South 450 518 37,000  Level FlightAware ADS-B
Mon 08:14:10 PM 34.7819 -82.3843 170° South 453 521 37,000  Level FlightAware ADS-B
Mon 08:14:40 PM 34.7193 -82.3713 170° South 456 525 37,000  Level FlightAware ADS-B
Mon 08:15:32 PM 34.6124 -82.3489 170° South 455 524 37,000  Level FlightAware ADS-B
Mon 08:16:11 PM 34.5430 -82.3350 171° South 456 525 37,000  Level FlightAware ADS-B
Mon 08:16:49 PM 34.4520 -82.3160 170° South 457 526 37,000  Level FlightAware ADS-B
Mon 08:17:19 PM 34.3900 -82.3030 170° South 459 528 37,000  Level FlightAware ADS-B
Mon 08:17:54 PM 34.3170 -82.2870 170° South 461 531 37,000  Level FlightAware ADS-B
Mon 08:18:29 PM 34.2430 -82.2720 170° South 463 533 37,000  Level FlightAware ADS-B
Mon 08:19:09 PM 34.1580 -82.2550 171° South 466 536 37,000  Level FlightAware ADS-B
Mon 08:19:39 PM 34.0950 -82.2420 170° South 465 535 37,000  Level FlightAware ADS-B
Mon 08:20:14 PM 34.0210 -82.2270 170° South 464 534 37,000  Level FlightAware ADS-B
Mon 08:20:49 PM 33.9510 -82.2120 170° South 464 534 37,000  Level FlightAware ADS-B
Mon 08:21:24 PM 33.8750 -82.1960 170° South 464 534 37,000 247 Level FlightAware ADS-B
Mon 08:22:02 PM 33.7980 -82.1810 171° South 460 529 37,300 658 Climbing FlightAware ADS-B
Mon 08:22:37 PM 33.7270 -82.1660 170° South 461 531 37,800 609 Climbing FlightAware ADS-B
Mon 08:23:11 PM 33.6470 -82.1550 173° South 460 529 38,000 182 Climbing FlightAware ADS-B
Mon 08:23:43 PM 33.5850 -82.1480 175° South 459 528 38,000  Level FlightAware ADS-B
Mon 08:24:18 PM 33.5140 -82.1400 175° South 458 527 38,000  Level FlightAware ADS-B
Mon 08:25:03 PM 33.4150 -82.1270 174° South 459 528 38,000  Level FlightAware ADS-B
Mon 08:25:20 PM 33.3760 -82.1160 167° South 461 531 38,000  Level FlightAware ADS-B
Mon 08:25:48 PM 33.3250 -82.0970 163° South 464 534 38,000  Level FlightAware ADS-B
Mon 08:26:24 PM 33.2460 -82.0680 163° South 468 539 38,000  Level FlightAware ADS-B
Mon 08:27:04 PM 33.1660 -82.0390 163° South 470 541 38,000  Level FlightAware ADS-B
Mon 08:27:39 PM 33.0880 -82.0120 164° South 471 542 38,000  Level FlightAware ADS-B
Mon 08:28:09 PM 33.0280 -81.9910 164° South 471 542 38,000  Level FlightAware ADS-B
Mon 08:28:44 PM 32.9590 -81.9670 164° South 468 539 38,000  Level FlightAware ADS-B
Mon 08:29:39 PM 32.8460 -81.9320 165° South 464 534 38,000  Level FlightAware ADS-B
Mon 08:30:14 PM 32.7720 -81.9310 179° South 464 534 38,000  Level FlightAware ADS-B
Mon 08:30:54 PM 32.7720 -81.9310 179° South 463 533 38,000  Level FlightAware ADS-B
Mon 08:31:29 PM 32.6020 -81.9480 185° South 462 532 38,000  Level FlightAware ADS-B
Mon 08:31:59 PM 32.5420 -81.9550 186° South 461 531 38,000  Level FlightAware ADS-B
Mon 08:32:44 PM 32.4420 -81.9660 185° South 461 531 38,000  Level FlightAware ADS-B
Mon 08:33:19 PM 32.3700 -81.9740 185° South 461 531 38,000  Level FlightAware ADS-B
Mon 08:33:59 PM 32.2850 -81.9830 185° South 461 531 38,000  Level FlightAware ADS-B
Mon 08:34:56 PM 32.1800 -81.9950 186° South 460 529 38,000  Level FlightAware ADS-B
Mon 08:35:32 PM 32.1150 -82.0030 186° South 460 529 38,000  Level FlightAware ADS-B
Mon 08:36:08 PM 32.0510 -82.0110 186° South 460 529 38,000  Level FlightAware ADS-B
Mon 08:36:44 PM 31.9860 -82.0190 186° South 460 529 38,000  Level FlightAware ADS-B
Mon 08:37:21 PM 31.9190 -82.0270 186° South 460 529 38,000  Level FlightAware ADS-B
Mon 08:37:57 PM 31.8550 -82.0350 186° South 460 529 38,000  Level FlightAware ADS-B
Mon 08:38:33 PM 31.7900 -82.0430 186° South 460 529 38,000  Level FlightAware ADS-B
Mon 08:39:09 PM 31.7250 -82.0510 186° South 460 529 38,000  Level FlightAware ADS-B
Mon 08:39:45 PM 31.6600 -82.0590 186° South 460 529 38,000  Level FlightAware ADS-B
Mon 08:40:22 PM 31.5940 -82.0680 187° South 460 529 38,000  Level FlightAware ADS-B
Mon 08:40:59 PM 31.5270 -82.0760 186° South 460 529 38,000  Level FlightAware ADS-B
Mon 08:41:35 PM 31.4620 -82.0840 186° South 460 529 38,000  Level FlightAware ADS-B
Mon 08:42:12 PM 31.3960 -82.0920 186° South 460 529 38,000  Level FlightAware ADS-B
Mon 08:42:48 PM 31.3310 -82.1000 186° South 460 529 38,000  Level FlightAware ADS-B
Mon 08:43:24 PM 31.2660 -82.1080 186° South 460 529 38,000  Level FlightAware ADS-B
Mon 08:44:01 PM 31.2000 -82.1160 186° South 460 529 38,000  Level FlightAware ADS-B
Mon 08:45:19 PM 30.8939 -82.3431 186° South 463 533 38,000  Level Jacksonville Center
Mon 08:46:19 PM 30.7750 -82.4089 205° Southwest 463 533 38,000  Level Jacksonville Center
Mon 08:47:19 PM 30.6583 -82.4722 205° Southwest 463 533 38,000  Level Jacksonville Center
Mon 08:48:19 PM 30.5458 -82.5547 212° Southwest 469 540 38,000  Level Jacksonville Center
Mon 08:49:19 PM 30.4667 -82.6300 219° Southwest 474 545 38,000 148 Level Jacksonville Center
Mon 08:55:04 PM 29.8590 -83.1690 219° Southwest 453 521 39,000 158 Climbing FlightAware ADS-B
Mon 08:55:38 PM 29.8010 -83.2200 217° Southwest 458 527 39,000  Level FlightAware ADS-B
Mon 08:56:13 PM 29.7300 -83.2620 207° Southwest 461 531 39,000  Level FlightAware ADS-B
Mon 08:56:49 PM 29.6600 -83.2880 198° South 453 521 39,000  Level FlightAware ADS-B
Mon 08:57:23 PM 29.5870 -83.3050 191° South 449 517 39,000  Level FlightAware ADS-B
Mon 08:58:13 PM 29.4800 -83.3080 181° South 447 514 39,000  Level FlightAware ADS-B
Mon 08:58:54 PM 29.3970 -83.3060 179° South 454 522 39,000  Level FlightAware ADS-B
Mon 08:59:28 PM 29.3230 -83.3050 179° South 454 522 39,000  Level FlightAware ADS-B
Mon 09:00:10 PM 29.2390 -83.3030 179° South 453 521 39,000  Level FlightAware ADS-B
Mon 09:00:43 PM 29.1650 -83.3030 180° South 453 521 39,000  Level FlightAware ADS-B
Mon 09:01:23 PM 29.0840 -83.2950 175° South 440 506 39,000  Level FlightAware ADS-B
Mon 09:01:54 PM 29.0210 -83.2870 174° South 440 506 39,000  Level FlightAware ADS-B
Mon 09:02:28 PM 28.9490 -83.2780 174° South 438 504 39,000  Level FlightAware ADS-B
Mon 09:03:08 PM 28.8690 -83.2580 168° South 440 506 39,000  Level FlightAware ADS-B
Mon 09:03:38 PM 28.8120 -83.2330 159° South 437 503 39,000  Level FlightAware ADS-B
Mon 09:04:13 PM 28.7470 -83.2000 156° South 435 501 39,000  Level FlightAware ADS-B
Mon 09:04:53 PM 28.6760 -83.1590 153° Southeast 436 502 39,000  Level FlightAware ADS-B
Mon 09:05:24 PM 28.6230 -83.1280 153° Southeast 435 501 39,000  Level FlightAware ADS-B
Mon 09:05:58 PM 28.5590 -83.0900 152° Southeast 436 502 39,000  Level FlightAware ADS-B
Mon 09:06:38 PM 28.4860 -83.0480 153° Southeast 436 502 39,000  Level FlightAware ADS-B
Mon 09:07:13 PM 28.4240 -83.0130 154° Southeast 436 502 39,000  Level FlightAware ADS-B
Mon 09:07:43 PM 28.3700 -82.9820 153° Southeast 435 501 39,000  Level FlightAware ADS-B
Mon 09:08:19 PM 28.3080 -82.9460 153° Southeast 436 502 39,000  Level FlightAware ADS-B
Mon 09:08:58 PM 28.2350 -82.9050 154° Southeast 430 495 39,000  Level FlightAware ADS-B
Mon 09:09:33 PM 28.1710 -82.8680 153° Southeast 430 495 39,000  Level FlightAware ADS-B
Mon 09:10:03 PM 28.1180 -82.8380 153° Southeast 436 502 39,000  Level FlightAware ADS-B
Mon 09:10:43 PM 28.0450 -82.7960 153° Southeast 437 503 39,000  Level FlightAware ADS-B
Mon 09:11:24 PM 27.9910 -82.7650 153° Southeast 435 501 39,000  Level FlightAware ADS-B
Mon 09:11:58 PM 27.9060 -82.7250 157° South 440 506 39,000  Level FlightAware ADS-B
Mon 09:12:33 PM 27.8410 -82.6970 159° South 428 493 39,000  Level FlightAware ADS-B
Mon 09:13:14 PM 27.7760 -82.6460 145° Southeast 421 484 39,000  Level FlightAware ADS-B
Mon 09:13:49 PM 27.7210 -82.5960 141° Southeast 421 484 39,000  Level FlightAware ADS-B
Mon 09:14:23 PM 27.6670 -82.5470 141° Southeast 421 484 39,000  Level FlightAware ADS-B
Mon 09:14:58 PM 27.6140 -82.4980 141° Southeast 423 487 39,000  Level FlightAware ADS-B
Mon 09:15:34 PM 27.5580 -82.4480 142° Southeast 431 496 39,000  Level FlightAware ADS-B
Mon 09:16:14 PM 27.4970 -82.3930 141° Southeast 433 498 39,000  Level FlightAware ADS-B
Mon 09:16:44 PM 27.4500 -82.3500 141° Southeast 435 501 39,000  Level FlightAware ADS-B
Mon 09:17:19 PM 27.3950 -82.3000 141° Southeast 437 503 39,000  Level FlightAware ADS-B
Mon 09:17:58 PM 27.3320 -82.2430 141° Southeast 440 506 39,000  Level FlightAware ADS-B
Mon 09:18:29 PM 27.2840 -82.2000 141° Southeast 434 499 39,000 -480 Level FlightAware ADS-B
Mon 09:19:13 PM 27.2140 -82.1370 141° Southeast 435 501 38,400 -1,333 Descending FlightAware ADS-B
Mon 09:19:50 PM 27.1550 -82.0840 141° Southeast 429 494 37,200 -1,913 Descending FlightAware ADS-B
Mon 09:20:22 PM 27.1070 -82.0410 141° Southeast 432 497 36,200 -1,853 Descending FlightAware ADS-B
Mon 09:20:58 PM 27.0500 -81.9900 141° Southeast 436 502 35,100 -1,833 Descending FlightAware ADS-B
Mon 09:21:34 PM 26.9900 -81.9360 141° Southeast 439 505 34,000 -1,775 Descending FlightAware ADS-B
Mon 09:22:09 PM 26.9350 -81.8870 142° Southeast 441 507 33,000 -1,676 Descending FlightAware ADS-B
Mon 09:22:42 PM 26.8830 -81.8400 141° Southeast 441 507 32,100 -1,944 Descending FlightAware ADS-B
Mon 09:23:20 PM 26.8210 -81.7850 142° Southeast 447 514 30,700 -2,314 Descending FlightAware ADS-B
Mon 09:23:52 PM 26.7680 -81.7380 142° Southeast 458 527 29,400 -2,418 Descending FlightAware ADS-B
Mon 09:24:27 PM 26.7100 -81.6870 142° Southeast 466 536 28,000 -2,400 Descending FlightAware ADS-B
Mon 09:25:02 PM 26.6560 -81.6390 142° Southeast 452 520 26,600 -2,571 Descending FlightAware ADS-B
Mon 09:25:37 PM 26.5940 -81.5840 142° Southeast 442 509 25,000 -2,486 Descending FlightAware ADS-B
Mon 09:26:12 PM 26.5400 -81.5360 142° Southeast 434 499 23,700 -2,215 Descending FlightAware ADS-B
Mon 09:26:42 PM 26.4920 -81.4940 142° Southeast 420 483 22,600 -2,143 Descending FlightAware ADS-B
Mon 09:27:22 PM 26.4330 -81.4410 141° Southeast 412 474 21,200 -2,080 Descending FlightAware ADS-B
Mon 09:27:57 PM 26.3800 -81.3950 142° Southeast 410 472 20,000 -2,057 Descending FlightAware ADS-B
Mon 09:28:32 PM 26.3290 -81.3500 142° Southeast 395 455 18,800 -2,143 Descending FlightAware ADS-B
Mon 09:29:07 PM 26.2780 -81.3050 142° Southeast 393 452 17,500 -2,143 Descending FlightAware ADS-B
Mon 09:29:42 PM 26.2290 -81.2620 142° Southeast 378 435 16,300 -2,143 Descending FlightAware ADS-B
Mon 09:30:17 PM 26.1790 -81.2180 142° Southeast 373 429 15,000 -1,909 Descending FlightAware ADS-B
Mon 09:30:48 PM 26.1380 -81.1820 142° Southeast 373 429 14,200 -1,457 Descending FlightAware ADS-B
Mon 09:31:27 PM 26.0840 -81.1350 142° Southeast 370 426 13,300 -1,622 Descending FlightAware ADS-B
Mon 09:32:02 PM 26.0390 -81.0950 141° Southeast 352 405 12,200 -1,800 Descending FlightAware ADS-B
Mon 09:32:37 PM 25.9930 -81.0550 142° Southeast 338 389 11,200 -1,527 Descending FlightAware ADS-B
Mon 09:32:57 PM 25.9710 -81.0300 134° Southeast 327 376 10,800 -840 Descending FlightAware ADS-B
Mon 09:33:27 PM 25.9580 -80.9860 108° East 301 346 10,500 -700 Descending FlightAware ADS-B
Mon 09:33:57 PM 25.9510 -80.9410 100° East 284 327 10,100 -1,053 Descending FlightAware ADS-B
Mon 09:34:24 PM 25.9460 -80.9050 99° East 281 323 9,500 -1,467 Descending FlightAware ADS-B
Mon 09:34:42 PM 25.9410 -80.8770 101° East 278 320 9,000 -1,421 Descending FlightAware ADS-B
Mon 09:35:02 PM 25.9370 -80.8500 99° East 277 319 8,600 -1,286 Descending FlightAware ADS-B
Mon 09:35:24 PM 25.9330 -80.8210 99° East 276 318 8,100 -1,467 Descending FlightAware ADS-B
Mon 09:35:47 PM 25.9270 -80.7870 101° East 274 315 7,500 -1,535 Descending FlightAware ADS-B
Mon 09:36:07 PM 25.9230 -80.7590 99° East 269 310 7,000 -1,350 Descending FlightAware ADS-B
Mon 09:36:27 PM 25.9190 -80.7310 99° East 267 307 6,600 -1,650 Descending FlightAware ADS-B
Mon 09:36:47 PM 25.9140 -80.7040 102° East 266 306 5,900 -2,000 Descending FlightAware ADS-B
Mon 09:37:12 PM 25.9090 -80.6710 100° East 264 304 5,100 -1,867 Descending FlightAware ADS-B
Mon 09:37:32 PM 25.9050 -80.6440 99° East 262 302 4,500 -1,800 Descending FlightAware ADS-B
Mon 09:37:52 PM 25.9010 -80.6170 99° East 258 297 3,900 -1,650 Descending FlightAware ADS-B
Mon 09:38:12 PM 25.8970 -80.5920 100° East 254 292 3,400 -1,333 Descending FlightAware ADS-B
Mon 09:38:37 PM 25.8920 -80.5590 100° East 244 281 2,900 -667 Descending FlightAware ADS-B
Mon 09:38:57 PM 25.8880 -80.5370 101° East 222 255 2,900  Level FlightAware ADS-B
Mon 09:39:07 PM 25.8860 -80.5250 100° East 210 242 2,900  Level FlightAware ADS-B
Mon 09:39:32 PM 25.8820 -80.5010 100° East 182 209 2,900  Level FlightAware ADS-B
Mon 09:39:52 PM 25.8800 -80.4830 97° East 170 196 2,900  Level FlightAware ADS-B
Mon 09:40:12 PM 25.8770 -80.4660 101° East 164 189 2,900  Level FlightAware ADS-B
Mon 09:40:32 PM 25.8740 -80.4500 102° East 161 185 2,900 -343 Level FlightAware ADS-B
Mon 09:40:47 PM 25.8690 -80.4390 117° Southeast 164 189 2,700 -857 Descending FlightAware ADS-B
Mon 09:41:07 PM 25.8610 -80.4240 121° Southeast 165 190 2,400 -857 Descending FlightAware ADS-B
Mon 09:41:22 PM 25.8550 -80.4120 119° Southeast 165 190 2,200 -1,029 Descending FlightAware ADS-B
Mon 09:41:42 PM 25.8480 -80.3980 119° Southeast 171 197 1,800 -1,050 Descending FlightAware ADS-B
Mon 09:42:02 PM 25.8400 -80.3820 119° Southeast 167 192 1,500 -1,029 Descending FlightAware ADS-B
Mon 09:42:17 PM 25.8350 -80.3710 117° Southeast 157 181 1,200 -857 Descending FlightAware ADS-B
Mon 09:42:37 PM 25.8270 -80.3570 122° Southeast 146 168 1,000 -750 Descending FlightAware ADS-B
Mon 09:42:57 PM 25.8210 -80.3450 119° Southeast 144 166 700 -800 Descending FlightAware ADS-B
Mon 09:43:22 PM 25.8130 -80.3290 119° Southeast 144 166 400 -686 Descending FlightAware ADS-B
Mon 09:43:32 PM 25.8100 -80.3230 119° Southeast 144 166 300 -600 Descending FlightAware ADS-B
Mon 09:43:54 PM 25.8020 -80.3070 119° Southeast 149 171 -818 Descending FlightAware ADS-B
Mon 09:44:13 PM 25.7950 -80.2940 121° Southeast 135 155  Level FlightAware ADS-B

Login

Don't have an account? Register now (free) for customized features, flight alerts, and more!